Du har inga inställningar för hoppväder.nu

Hoppväder.nu

Senast uppdaterat 11:36

UTC-tid

2018-05-22 kl. 09:36


Sol och måne

Solen går upp 4:37 och går ner 21:24 (beräknade cirkatider)
Nästa fullmåne blir om 7 dagar (2018-05-29)

METAR

ESMK (Everöd)
(16 minuter sedan)
ESMK 220920Z 12007KT 050V150 CAVOK 18/08 Q1019=



ESMS (Malmö)
(16 minuter sedan)
ESMS 220920Z 09008KT 060V140 CAVOK 21/06 Q1018=



ESMX (Växjö)
(16 minuter sedan)
ESMX 220920Z VRB06KT CAVOK 21/04 Q1019=



ESDF (Ronneby)
(16 minuter sedan)
ESDF 220920Z 12008KT 060V150 CAVOK 21/08 Q1019=



EKRN (Rønne, Bornholm)
(46 minuter sedan)
EKRN 220850Z AUTO 07005KT 030V140 9999NDV SCT150/// 17/11 Q1018=



TAF

ESMK (Everöd)
(96 minuter sedan)
ESMK 220800Z 2209/2218 09005KT CAVOK=



ESMS (Malmö)
(275 minuter sedan)
ESMS 220501Z 2206/2306 10008KT CAVOK=



ESMX (Växjö)
(66 minuter sedan)
ESMX 220830Z 2209/2218 03006KT CAVOK=



ESDF (Ronneby)
(66 minuter sedan)
ESDF 220830Z 2209/2218 12008G18KT CAVOK RMK MIL=



EKRN (Rønne, Bornholm)
(96 minuter sedan)
EKRN 220800Z 2209/2218 09005KT CAVOK=





Kodnycklar till TAF och METAR






LHP

(Everöd är område J3b i Hela Område E)

ÖVERSIKT FÖR OMRÅDE E UTFÄRDAD 220651
GÄLLANDE DEN 22 MAJ 2018 MELLAN 08 OCH 16 UTC


Väderöversikt
Se väderöversikt för område A+B

Sikt under 5 kilometer eller molnbas under 1000 fot
Väntas inte förekomma under perioden.

Måttlig eller svår isbildning
Väntas inte förekomma under perioden

Måttlig eller svår turbulens
Väntas inte förekomma under perioden



PROGNOS FÖR OMRÅDE J UTFÄRDAD 220651
GÄLLANDE DEN 22 MAJ 2018 MELLAN 08 OCH 16 UTC

Måttlig eller svår turbulens
08-16UTC: I hela området: Väntas inte förekomma under perioden

Måttlig eller svår isbildning
08-16UTC: I hela området: Väntas inte förekomma under perioden

Sikt/Väder/Moln
08-16UTC: I hela området: Sikt >8km. Molnbas >4000ft.

Molnöversida
08-10UTC: I hela området: Molnöversida FL095.
10-16UTC: I hela området: Molnöversida FL100.

CB/TCU Moln
08-16UTC: I hela området: Väntas inte förekomma under perioden

Nollgradersisoterm
08-16UTC: Noll grader FL070 - FL090.

Vind vid marken
08-10UTC: Område J3a: O-SO/1-7 knop, byar upp till 18 knop.
Område J4b: O/4-12 knop, byar upp till 19 knop.
Område J1a: O-SO/0-8 knop, byar upp till 18 knop.
Område J1b: NO-O/0-9 knop, byar upp till 18 knop.
Område J3b: O-SO/2-8 knop, byar upp till 19 knop.
Område J2b: O/1-9 knop, byar upp till 19 knop.
Område J3c: O/4-10 knop, byar upp till 20 knop.
Område J1c: O/3-11 knop, byar upp till 19 knop.
Område J4a: O/4-14 knop, byar upp till 21 knop.
Område J2a: O/2-8 knop, byar upp till 18 knop.
Område J4c: O/2-12 knop, byar upp till 19 knop.

10-12UTC: Område J1c: O-SO/0-12 knop, byar upp till 21 knop.
Område J1b: N-NO/1-9 knop, byar upp till 19 knop.
Område J2a: O-SO/1-9 knop, byar upp till 23 knop.
Område J4a: O-SO/5-15 knop, byar upp till 23 knop.
Område J4b: O/3-14 knop, byar upp till 21 knop.
Område J1a: NV/1-10 knop, byar upp till 22 knop.
Område J2b: O-SO/1-8 knop, byar upp till 20 knop.
Område J3b: O-SO/3-10 knop, byar upp till 22 knop.
Område J3c: O/5-13 knop, byar upp till 23 knop.
Område J4c: O/0-14 knop, byar upp till 24 knop.
Område J3a: SO/2-11 knop, byar upp till 23 knop.

12-14UTC: Område J2b: O-SO/0-9 knop, byar upp till 19 knop.
Område J4b: NO-O/4-11 knop, byar upp till 22 knop.
Område J3c: O-SO/2-12 knop, byar upp till 25 knop.
Område J1c: S/2-12 knop, byar upp till 23 knop.
Område J4c: NO/0-12 knop, byar upp till 25 knop.
Område J4a: O-SO/4-11 knop, byar upp till 23 knop.
Område J1b: NV-N/1-9 knop, byar upp till 18 knop.
Område J2a: O/0-9 knop, byar upp till 20 knop.
Område J3b: SO/2-11 knop, byar upp till 23 knop.
Område J3a: SO-S/0-10 knop, byar upp till 23 knop.
Område J1a: NV/4-9 knop, byar upp till 19 knop.

14-16UTC: Område J4b: NO-O/4-10 knop.
Område J3c: O-SO/2-11 knop.
Område J2b: O/0-10 knop.
Område J3b: O-SO/3-8 knop.
Område J4a: O/2-12 knop.
Område J2a: N/0-10 knop.
Område J4c: NO/1-14 knop.
Område J1a: NV-N/4-11 knop.
Område J1b: NV-N/3-10 knop.
Område J3a: SO-S/0-9 knop.
Område J1c: S-SV/0-12 knop.


Vind och temperatur
2000ft:
08-10UTC: 100/18kt +11.
10-12UTC: 110/15kt +11.
12-14UTC: 100/16kt +10.
14-16UTC: 80/15kt +10.

FL50:
08-10UTC: 100/16kt +3.
10-12UTC: 100/16kt +4.
12-14UTC: 80/15kt +3.
14-16UTC: 60/17kt +4.

FL100:
08-10UTC: 90/14kt -6.
10-12UTC: 60/19kt -6.
12-14UTC: 50/18kt -6.
14-16UTC: 40/20kt -7.

Lägsta QNH
1017 hPa.

OBS! endast utbredd måttlig eller svår isbildning och turbulens prognostiseras i LLF.
Avsaknad av isbildning och turbulens i prognosen utesluter inte förekomst av lätt isbildning och turbulens.
För indikation på lätt isbildning, var vänlig kontrollera om prognosen för molntopp ligger högre än nollgradersisotermen.
Förekomst av TCU eller CB medför alltid en risk för måttlig eller svår isbildning och turbulens även om det inte framgår explicit av prognosen.





Spotting

Hur fungerar spotthjälpen och Vindkartan?

Markvind är ca 1-4 m/s med byar på 10 m/s.
Vind på 600 m ca 9 m/s.
Vind på 1500 m ca 8 m/s.
Vind på 3000 m ca 7 m/s.
KalleDavid flyger ca 37 m/s över marken på finalen.
Du driver ca 324 m bakåt i frifall. (432 m)
Lämplig spot är 1 sekunder eller 37 m efter gropen.
(4 s eller 146 m)
För små grupper eller ensamhoppare bör man vänta 4-6 sekunder mellan grupperna.
För större grupper bör man vänta 8-10 sekunder mellan grupperna.


Vindkartan

Senast uppdaterad 11:36



All data kommer från LFV.se